Pelham, New Hampshire
Current Conditions -  °F | °C
As of 11:54 PM on Tuesday 21 Oct 2014 (Local Time) from KLWM Reporting Station
Overcast Overcast  
Wind Chill: 50°   Ceiling: 500
Heat Index: 50°   Visibility: 10mi
Dew Point: 49°   Wind: 12mph
Humidity: 96%   Direction: 360°N
Pressure: 30.02"   Gusts: NA
Location:  42.73°N, 71.32°W
Report Text: KLWM 220354Z 36010KT 10SM OVC005 10/09 A3002 RMK AO2 RAB13E45 SLP168 P0000 T01000094
Loading
Personal Weather Stations






























Interactive Weather Map New forecast layout! Learn more

10-Day Weather Forecast

Advertisements
Track Severe Weather on mobile